createdAt,value
2023-01-19T00:00:05.478Z,80.54
2023-01-19T00:00:15.484Z,80.54
2023-01-19T00:00:25.583Z,80.54
2023-01-19T00:00:35.531Z,80.54
2023-01-19T00:00:45.411Z,80.54
2023-01-19T00:00:55.534Z,80.64
2023-01-19T00:01:05.467Z,80.64
2023-01-19T00:01:15.506Z,80.64
2023-01-19T00:01:25.502Z,80.64
2023-01-19T00:01:35.557Z,80.64
2023-01-19T00:01:45.533Z,80.64
2023-01-19T00:01:55.463Z,80.64
2023-01-19T00:02:05.506Z,80.64
2023-01-19T00:02:15.557Z,80.64
2023-01-19T00:02:25.414Z,80.54
2023-01-19T00:02:35.554Z,80.64
2023-01-19T00:02:45.557Z,80.64
2023-01-19T00:02:55.486Z,80.54
2023-01-19T00:03:05.529Z,80.54
2023-01-19T00:03:15.504Z,80.64
2023-01-19T00:03:25.404Z,80.64
2023-01-19T00:03:35.563Z,80.64
2023-01-19T00:03:45.463Z,80.64
2023-01-19T00:03:55.521Z,80.64
2023-01-19T00:04:05.511Z,80.64
2023-01-19T00:04:15.571Z,80.75
2023-01-19T00:04:25.500Z,80.64
2023-01-19T00:04:35.433Z,80.64
2023-01-19T00:04:45.459Z,80.64
2023-01-19T00:04:55.497Z,80.64
2023-01-19T00:05:05.526Z,80.64
2023-01-19T00:05:15.520Z,80.64
2023-01-19T00:05:25.489Z,80.54
2023-01-19T00:05:35.430Z,80.64
2023-01-19T00:05:45.565Z,80.54
2023-01-19T00:05:55.438Z,80.54
2023-01-19T00:06:05.566Z,80.54
2023-01-19T00:06:15.582Z,80.64
2023-01-19T00:06:25.527Z,80.64
2023-01-19T00:06:35.607Z,80.64
2023-01-19T00:06:45.517Z,80.64
2023-01-19T00:06:55.418Z,80.64
2023-01-19T00:07:05.471Z,80.64
2023-01-19T00:07:15.471Z,80.64
2023-01-19T00:07:25.474Z,80.54
2023-01-19T00:07:35.495Z,80.54
2023-01-19T00:07:45.444Z,80.54
2023-01-19T00:07:55.524Z,80.54
2023-01-19T00:08:05.527Z,80.57
2023-01-19T00:08:15.467Z,80.57
2023-01-19T00:08:25.432Z,80.57
2023-01-19T00:08:35.442Z,80.68
2023-01-19T00:08:45.458Z,80.68
2023-01-19T00:08:55.471Z,80.79
2023-01-19T00:09:05.521Z,80.79
2023-01-19T00:09:15.517Z,80.89
2023-01-19T00:09:25.437Z,80.89
2023-01-19T00:09:35.474Z,80.89
2023-01-19T00:09:45.508Z,80.99
2023-01-19T00:09:55.456Z,80.99
2023-01-19T00:10:05.455Z,80.99
2023-01-19T00:10:15.519Z,81.10
2023-01-19T00:10:25.449Z,81.10
2023-01-19T00:10:35.501Z,81.20
2023-01-19T00:10:45.517Z,81.20
2023-01-19T00:10:55.439Z,81.20
2023-01-19T00:11:05.429Z,81.20
2023-01-19T00:11:15.420Z,81.31
2023-01-19T00:11:25.481Z,81.20
2023-01-19T00:11:35.482Z,81.20
2023-01-19T00:11:45.454Z,81.20
2023-01-19T00:11:55.442Z,81.20
2023-01-19T00:12:05.503Z,81.31
2023-01-19T00:12:15.487Z,81.31
2023-01-19T00:12:25.421Z,81.31
2023-01-19T00:12:35.468Z,81.31
2023-01-19T00:12:45.520Z,81.31
2023-01-19T00:12:55.419Z,81.31
2023-01-19T00:13:05.489Z,81.41
2023-01-19T00:13:15.529Z,81.41
2023-01-19T00:13:25.459Z,81.41
2023-01-19T00:13:35.412Z,81.41
2023-01-19T00:13:45.478Z,81.41
2023-01-19T00:13:55.405Z,81.48
2023-01-19T00:14:05.440Z,81.48
2023-01-19T00:14:15.402Z,81.48
2023-01-19T00:14:25.524Z,81.48
2023-01-19T00:14:35.467Z,81.48
2023-01-19T00:14:45.447Z,81.48
2023-01-19T00:14:55.414Z,81.48
2023-01-19T00:15:05.404Z,81.48
2023-01-19T00:15:15.415Z,81.48
2023-01-19T00:15:25.396Z,81.48
2023-01-19T00:15:35.435Z,81.48
2023-01-19T00:15:45.587Z,81.59
2023-01-19T00:15:55.423Z,81.59
2023-01-19T00:16:05.450Z,81.59
2023-01-19T00:16:15.529Z,81.59
2023-01-19T00:16:25.525Z,81.59
2023-01-19T00:16:35.476Z,81.59
2023-01-19T00:16:45.524Z,81.48
2023-01-19T00:16:55.477Z,81.48
2023-01-19T00:17:05.445Z,81.48
2023-01-19T00:17:15.513Z,81.48
2023-01-19T00:17:25.472Z,81.48
2023-01-19T00:17:35.454Z,81.38
2023-01-19T00:17:45.486Z,81.38
2023-01-19T00:17:55.506Z,81.38
2023-01-19T00:18:05.527Z,81.27
2023-01-19T00:18:15.434Z,81.27
2023-01-19T00:18:25.523Z,81.27
2023-01-19T00:18:35.430Z,81.27
2023-01-19T00:18:45.490Z,81.27
2023-01-19T00:18:55.500Z,81.27
2023-01-19T00:19:05.419Z,81.27
2023-01-19T00:19:15.422Z,81.27
2023-01-19T00:19:25.403Z,81.27
2023-01-19T00:19:35.489Z,81.27
2023-01-19T00:19:45.510Z,81.27
2023-01-19T00:19:55.500Z,81.27
2023-01-19T00:20:05.484Z,81.27
2023-01-19T00:20:15.444Z,81.27
2023-01-19T00:20:25.423Z,81.27
2023-01-19T00:20:35.588Z,81.16
2023-01-19T00:20:45.464Z,81.16
2023-01-19T00:20:55.457Z,81.16
2023-01-19T00:21:05.524Z,81.16
2023-01-19T00:21:15.501Z,81.16
2023-01-19T00:21:25.443Z,81.16
2023-01-19T00:21:35.481Z,81.06
2023-01-19T00:21:45.444Z,81.06
2023-01-19T00:21:55.456Z,81.02
2023-01-19T00:22:05.391Z,81.16
2023-01-19T00:22:15.487Z,81.16
2023-01-19T00:22:25.464Z,81.16
2023-01-19T00:22:35.512Z,81.16
2023-01-19T00:22:45.437Z,81.16
2023-01-19T00:22:55.518Z,81.16
2023-01-19T00:23:05.512Z,81.16
2023-01-19T00:23:15.478Z,81.06
2023-01-19T00:23:25.422Z,81.06
2023-01-19T00:23:35.412Z,81.06
2023-01-19T00:23:45.402Z,81.06
2023-01-19T00:23:55.398Z,81.06
2023-01-19T00:24:05.470Z,80.96
2023-01-19T00:24:15.508Z,80.96
2023-01-19T00:24:25.523Z,80.96
2023-01-19T00:24:35.495Z,80.96
2023-01-19T00:24:45.410Z,80.96
2023-01-19T00:24:55.473Z,80.96
2023-01-19T00:25:05.478Z,80.96
2023-01-19T00:25:15.401Z,80.96
2023-01-19T00:25:25.464Z,80.85
2023-01-19T00:25:35.474Z,80.96
2023-01-19T00:25:45.530Z,81.06
2023-01-19T00:25:55.447Z,81.06
2023-01-19T00:26:05.469Z,81.06
2023-01-19T00:26:15.526Z,81.16
2023-01-19T00:26:25.415Z,81.16
2023-01-19T00:26:35.508Z,81.27
2023-01-19T00:26:45.399Z,81.27
2023-01-19T00:26:55.433Z,81.27
2023-01-19T00:27:05.442Z,81.27
2023-01-19T00:27:15.464Z,81.27
2023-01-19T00:27:25.412Z,81.16
2023-01-19T00:27:35.468Z,81.16
2023-01-19T00:27:45.438Z,81.16
2023-01-19T00:27:57.063Z,81.16
2023-01-19T00:28:05.418Z,81.27
2023-01-19T00:28:15.461Z,81.27
2023-01-19T00:28:25.505Z,81.38
2023-01-19T00:28:35.527Z,81.38
2023-01-19T00:28:45.479Z,81.48
2023-01-19T00:28:55.404Z,81.48
2023-01-19T00:29:05.453Z,81.48
2023-01-19T00:29:15.418Z,81.48
2023-01-19T00:29:25.480Z,81.48
2023-01-19T00:29:35.491Z,81.48
2023-01-19T00:29:45.486Z,81.48
2023-01-19T00:29:55.437Z,81.38
2023-01-19T00:30:05.542Z,81.38
2023-01-19T00:30:15.485Z,81.34
2023-01-19T00:30:25.479Z,81.38
2023-01-19T00:30:35.429Z,81.34
2023-01-19T00:30:45.400Z,81.45
2023-01-19T00:30:55.495Z,81.48
2023-01-19T00:31:05.433Z,81.45
2023-01-19T00:31:15.564Z,81.55
2023-01-19T00:31:25.434Z,81.55
2023-01-19T00:31:35.574Z,81.55
2023-01-19T00:31:45.521Z,81.55
2023-01-19T00:31:55.446Z,81.55
2023-01-19T00:32:05.502Z,81.55
2023-01-19T00:32:15.436Z,81.55
2023-01-19T00:32:25.499Z,81.55
2023-01-19T00:32:35.529Z,81.45
2023-01-19T00:32:45.490Z,81.45
2023-01-19T00:32:55.479Z,81.55
2023-01-19T00:33:05.452Z,81.55
2023-01-19T00:33:15.428Z,81.55
2023-01-19T00:33:25.486Z,81.65
2023-01-19T00:33:35.529Z,81.76
2023-01-19T00:33:45.485Z,81.87
2023-01-19T00:33:55.418Z,81.87
2023-01-19T00:34:05.461Z,81.97
2023-01-19T00:34:15.519Z,81.97
2023-01-19T00:34:25.405Z,81.87
2023-01-19T00:34:35.392Z,81.87
2023-01-19T00:34:45.534Z,81.76
2023-01-19T00:34:55.464Z,81.76
2023-01-19T00:35:05.401Z,81.65
2023-01-19T00:35:15.493Z,81.65
2023-01-19T00:35:25.454Z,81.51
2023-01-19T00:35:35.466Z,81.51
2023-01-19T00:35:45.416Z,81.51
2023-01-19T00:35:55.426Z,81.41
2023-01-19T00:36:05.473Z,81.30
2023-01-19T00:36:15.466Z,81.20
2023-01-19T00:36:25.472Z,81.20
2023-01-19T00:36:35.440Z,81.09
2023-01-19T00:36:45.500Z,81.09
2023-01-19T00:36:55.495Z,81.05
2023-01-19T00:37:05.430Z,80.95
2023-01-19T00:37:15.445Z,80.85
2023-01-19T00:37:25.472Z,80.74
2023-01-19T00:37:35.553Z,80.64
2023-01-19T00:37:45.446Z,80.43
2023-01-19T00:37:55.467Z,80.32
2023-01-19T00:38:05.395Z,80.18
2023-01-19T00:38:15.476Z,79.97
2023-01-19T00:38:25.449Z,79.97
2023-01-19T00:38:35.491Z,79.86
2023-01-19T00:38:45.408Z,79.76
2023-01-19T00:38:55.431Z,79.76
2023-01-19T00:39:05.461Z,79.66
2023-01-19T00:39:15.502Z,79.55
2023-01-19T00:39:25.508Z,79.44
2023-01-19T00:39:35.405Z,79.34
2023-01-19T00:39:45.504Z,79.34
2023-01-19T00:39:55.447Z,79.34
2023-01-19T00:40:05.529Z,79.24
2023-01-19T00:40:15.542Z,79.24
2023-01-19T00:40:25.528Z,79.13
2023-01-19T00:40:35.533Z,79.13
2023-01-19T00:40:45.499Z,79.13
2023-01-19T00:40:55.458Z,79.13
2023-01-19T00:41:05.450Z,79.03
2023-01-19T00:41:15.473Z,79.03
2023-01-19T00:41:25.521Z,78.92
2023-01-19T00:41:35.403Z,78.89
2023-01-19T00:41:45.522Z,78.78
2023-01-19T00:41:55.449Z,78.78
2023-01-19T00:42:05.436Z,78.67
2023-01-19T00:42:15.523Z,78.78
2023-01-19T00:42:25.483Z,78.78
2023-01-19T00:42:35.502Z,78.67
2023-01-19T00:42:45.404Z,78.67
2023-01-19T00:42:55.488Z,78.67
2023-01-19T00:43:05.485Z,78.78
2023-01-19T00:43:15.531Z,78.67
2023-01-19T00:43:25.516Z,78.67
2023-01-19T00:43:35.461Z,78.67
2023-01-19T00:43:45.445Z,78.67
2023-01-19T00:43:55.418Z,78.67
2023-01-19T00:44:05.418Z,78.67
2023-01-19T00:44:15.484Z,78.67
2023-01-19T00:44:25.506Z,78.78
2023-01-19T00:44:35.451Z,78.78
2023-01-19T00:44:45.507Z,78.78
2023-01-19T00:44:55.458Z,78.78
2023-01-19T00:45:05.421Z,78.78
2023-01-19T00:45:15.435Z,78.67
2023-01-19T00:45:25.470Z,78.57
2023-01-19T00:45:35.505Z,78.57
2023-01-19T00:45:45.509Z,78.47
2023-01-19T00:45:55.464Z,78.47
2023-01-19T00:46:05.527Z,78.47
2023-01-19T00:46:15.528Z,78.47
2023-01-19T00:46:25.400Z,78.36
2023-01-19T00:46:35.392Z,78.36
2023-01-19T00:46:45.480Z,78.36
2023-01-19T00:46:55.431Z,78.36
2023-01-19T00:47:05.443Z,78.36
2023-01-19T00:47:15.471Z,78.36
2023-01-19T00:47:25.515Z,78.25
2023-01-19T00:47:35.417Z,78.25
2023-01-19T00:47:45.476Z,78.25
2023-01-19T00:47:55.512Z,78.15
2023-01-19T00:48:05.524Z,78.25
2023-01-19T00:48:15.414Z,78.25
2023-01-19T00:48:25.392Z,78.25
2023-01-19T00:48:35.515Z,78.25
2023-01-19T00:48:45.531Z,78.25
2023-01-19T00:48:55.448Z,78.25
2023-01-19T00:49:05.469Z,78.25
2023-01-19T00:49:15.476Z,78.15
2023-01-19T00:49:25.453Z,78.15
2023-01-19T00:49:35.447Z,78.15
2023-01-19T00:49:45.510Z,78.15
2023-01-19T00:49:55.465Z,78.15
2023-01-19T00:50:05.414Z,78.15
2023-01-19T00:50:15.476Z,78.15
2023-01-19T00:50:25.513Z,78.15
2023-01-19T00:50:35.520Z,78.15
2023-01-19T00:50:45.496Z,78.25
2023-01-19T00:50:55.515Z,78.25
2023-01-19T00:51:05.517Z,78.25
2023-01-19T00:51:15.502Z,78.25
2023-01-19T00:51:25.432Z,78.25
2023-01-19T00:51:35.508Z,78.25
2023-01-19T00:51:45.469Z,78.36
2023-01-19T00:51:55.469Z,78.36
2023-01-19T00:52:05.419Z,78.36
2023-01-19T00:52:15.489Z,78.36
2023-01-19T00:52:25.525Z,78.36
2023-01-19T00:52:35.393Z,78.47
2023-01-19T00:52:45.503Z,78.47
2023-01-19T00:52:55.526Z,78.36
2023-01-19T00:53:05.459Z,78.36
2023-01-19T00:53:15.497Z,78.36
2023-01-19T00:53:25.412Z,78.36
2023-01-19T00:53:35.469Z,78.36
2023-01-19T00:53:45.472Z,78.36
2023-01-19T00:53:55.461Z,78.36
2023-01-19T00:54:05.498Z,78.36
2023-01-19T00:54:15.520Z,78.36
2023-01-19T00:54:27.473Z,78.47
2023-01-19T00:54:35.506Z,78.47
2023-01-19T00:54:45.421Z,78.47
2023-01-19T00:54:55.499Z,78.36
2023-01-19T00:55:05.490Z,78.36
2023-01-19T00:55:15.480Z,78.36
2023-01-19T00:55:25.397Z,78.36
2023-01-19T00:55:35.494Z,78.25
2023-01-19T00:55:45.431Z,78.36
2023-01-19T00:55:55.410Z,78.36
2023-01-19T00:56:05.403Z,78.36
2023-01-19T00:56:15.408Z,78.36
2023-01-19T00:56:25.442Z,78.36
2023-01-19T00:56:35.440Z,78.36
2023-01-19T00:56:45.423Z,78.36
2023-01-19T00:56:55.404Z,78.47
2023-01-19T00:57:05.491Z,78.57
2023-01-19T00:57:15.437Z,78.57
2023-01-19T00:57:25.484Z,78.57
2023-01-19T00:57:35.546Z,78.57
2023-01-19T00:57:45.424Z,78.57
2023-01-19T00:57:55.424Z,78.57
2023-01-19T00:58:05.534Z,78.47
2023-01-19T00:58:15.548Z,78.47
2023-01-19T00:58:25.506Z,78.47
2023-01-19T00:58:35.436Z,78.47
2023-01-19T00:58:45.542Z,78.47
2023-01-19T00:58:55.470Z,78.47
2023-01-19T00:59:05.452Z,78.47
2023-01-19T00:59:15.417Z,78.47
2023-01-19T00:59:25.511Z,78.47
2023-01-19T00:59:35.489Z,78.47
2023-01-19T00:59:45.460Z,78.36
2023-01-19T00:59:55.484Z,78.36
2023-01-19T01:00:05.475Z,78.36
2023-01-19T01:00:15.423Z,78.36
2023-01-19T01:00:25.411Z,78.47
2023-01-19T01:00:35.492Z,78.47
2023-01-19T01:00:45.477Z,78.57
2023-01-19T01:00:55.611Z,78.57
2023-01-19T01:01:05.591Z,78.57
2023-01-19T01:01:15.627Z,78.57
2023-01-19T01:01:45.514Z,78.67
2023-01-19T01:01:45.877Z,78.57
2023-01-19T01:01:46.614Z,78.67
2023-01-19T01:01:55.529Z,78.78
2023-01-19T01:02:05.651Z,78.78
2023-01-19T01:02:15.656Z,78.67
2023-01-19T01:02:25.661Z,78.67
2023-01-19T01:02:35.677Z,78.57
2023-01-19T01:02:45.604Z,78.57
2023-01-19T01:02:55.560Z,78.57
2023-01-19T01:03:05.653Z,78.67
2023-01-19T01:03:15.507Z,78.57
2023-01-19T01:03:25.437Z,78.57
2023-01-19T01:03:35.583Z,78.57
2023-01-19T01:03:45.496Z,78.57
2023-01-19T01:03:55.456Z,78.57
2023-01-19T01:04:05.468Z,78.57
2023-01-19T01:04:15.473Z,78.57
2023-01-19T01:04:25.523Z,78.57
2023-01-19T01:04:35.406Z,78.57
2023-01-19T01:04:45.485Z,78.57
2023-01-19T01:04:55.440Z,78.57
2023-01-19T01:05:05.523Z,78.67
2023-01-19T01:05:15.393Z,78.67
2023-01-19T01:05:25.442Z,78.67
2023-01-19T01:05:35.452Z,78.67
2023-01-19T01:05:45.485Z,78.57
2023-01-19T01:05:55.409Z,78.57
2023-01-19T01:06:05.494Z,78.57
2023-01-19T01:06:15.407Z,78.47
2023-01-19T01:06:25.427Z,78.47
2023-01-19T01:06:35.416Z,78.47
2023-01-19T01:06:45.492Z,78.47
2023-01-19T01:06:55.478Z,78.47
2023-01-19T01:07:05.567Z,78.47
2023-01-19T01:07:15.497Z,78.47
2023-01-19T01:07:25.421Z,78.47
2023-01-19T01:07:35.466Z,78.47
2023-01-19T01:07:45.591Z,78.57
2023-01-19T01:07:55.552Z,78.57
2023-01-19T01:08:05.469Z,78.57
2023-01-19T01:08:15.426Z,78.57
2023-01-19T01:08:25.526Z,78.57
2023-01-19T01:08:35.451Z,78.57
2023-01-19T01:08:45.539Z,78.57
2023-01-19T01:08:55.450Z,78.57
2023-01-19T01:09:05.544Z,78.57
2023-01-19T01:09:15.404Z,78.57
2023-01-19T01:09:25.453Z,78.57
2023-01-19T01:09:35.466Z,78.57
2023-01-19T01:09:45.513Z,78.57
2023-01-19T01:09:55.516Z,78.57
2023-01-19T01:10:05.420Z,78.57
2023-01-19T01:10:15.464Z,78.47
2023-01-19T01:10:25.464Z,78.47
2023-01-19T01:10:35.509Z,78.47
2023-01-19T01:10:45.409Z,78.57
2023-01-19T01:10:55.434Z,78.57
2023-01-19T01:11:05.474Z,78.57
2023-01-19T01:11:15.396Z,78.57
2023-01-19T01:11:25.472Z,78.57
2023-01-19T01:11:35.431Z,78.47
2023-01-19T01:11:45.482Z,78.47
2023-01-19T01:11:55.524Z,78.47
2023-01-19T01:12:05.944Z,78.36
2023-01-19T01:12:15.489Z,78.36
2023-01-19T01:12:25.525Z,78.36
2023-01-19T01:12:35.529Z,78.36
2023-01-19T01:12:56.764Z,78.36
2023-01-19T01:12:57.619Z,78.36
2023-01-19T01:13:21.081Z,78.36
2023-01-19T01:13:21.385Z,78.36
2023-01-19T01:13:27.535Z,78.36
2023-01-19T01:13:35.510Z,78.36
2023-01-19T01:13:45.455Z,78.36
2023-01-19T01:13:55.506Z,78.47
2023-01-19T01:14:05.432Z,78.47
2023-01-19T01:14:15.423Z,78.47
2023-01-19T01:14:25.428Z,78.36
2023-01-19T01:14:35.510Z,78.36
2023-01-19T01:14:45.429Z,78.36
2023-01-19T01:14:55.424Z,78.36
2023-01-19T01:15:05.508Z,78.36
2023-01-19T01:15:15.435Z,78.36
2023-01-19T01:15:25.392Z,78.25
2023-01-19T01:15:35.396Z,78.22
2023-01-19T01:15:45.407Z,78.11
2023-01-19T01:15:55.421Z,78.11
2023-01-19T01:16:05.431Z,78.01
2023-01-19T01:16:15.565Z,78.01
2023-01-19T01:16:25.443Z,77.91
2023-01-19T01:16:35.451Z,77.91
2023-01-19T01:16:45.558Z,77.91
2023-01-19T01:16:55.454Z,77.80
2023-01-19T01:17:05.539Z,77.80
2023-01-19T01:17:15.511Z,77.70
2023-01-19T01:17:25.519Z,77.59
2023-01-19T01:17:35.516Z,77.48
2023-01-19T01:17:45.463Z,77.48
2023-01-19T01:17:55.426Z,77.38
2023-01-19T01:18:05.472Z,77.38
2023-01-19T01:18:15.461Z,77.28
2023-01-19T01:18:25.407Z,77.28
2023-01-19T01:18:35.414Z,77.28
2023-01-19T01:18:45.502Z,77.17
2023-01-19T01:18:55.494Z,77.17
2023-01-19T01:19:05.477Z,77.17
2023-01-19T01:19:15.921Z,77.07
2023-01-19T01:19:25.473Z,77.07
2023-01-19T01:19:35.410Z,77.07
2023-01-19T01:19:45.453Z,77.07
2023-01-19T01:19:55.455Z,77.07
2023-01-19T01:20:05.425Z,77.07
2023-01-19T01:20:15.409Z,77.07
2023-01-19T01:20:25.439Z,77.07
2023-01-19T01:20:35.504Z,77.07
2023-01-19T01:20:45.472Z,77.07
2023-01-19T01:20:56.406Z,77.07
2023-01-19T01:21:05.471Z,77.07
2023-01-19T01:21:15.423Z,77.07
2023-01-19T01:21:25.456Z,77.07
2023-01-19T01:21:35.423Z,77.07
2023-01-19T01:21:45.400Z,77.07
2023-01-19T01:21:55.462Z,77.07
2023-01-19T01:22:05.485Z,77.07
2023-01-19T01:22:15.425Z,77.07
2023-01-19T01:22:25.517Z,77.07
2023-01-19T01:22:35.430Z,77.07
2023-01-19T01:22:45.464Z,77.07
2023-01-19T01:22:55.478Z,77.07
2023-01-19T01:23:05.492Z,77.17
2023-01-19T01:23:15.527Z,77.07
2023-01-19T01:23:25.491Z,77.07
2023-01-19T01:23:35.496Z,77.07
2023-01-19T01:23:45.396Z,77.07
2023-01-19T01:23:55.518Z,77.07
2023-01-19T01:24:05.537Z,77.07
2023-01-19T01:24:15.430Z,77.17
2023-01-19T01:24:25.528Z,77.17
2023-01-19T01:24:35.466Z,77.17
2023-01-19T01:24:45.450Z,77.17
2023-01-19T01:24:55.538Z,77.17
2023-01-19T01:25:05.408Z,77.17
2023-01-19T01:25:15.416Z,77.17
2023-01-19T01:25:25.436Z,77.28
2023-01-19T01:25:35.448Z,77.28
2023-01-19T01:25:45.472Z,77.28
2023-01-19T01:25:55.413Z,77.28
2023-01-19T01:26:05.432Z,77.28
2023-01-19T01:26:15.407Z,77.38
2023-01-19T01:26:27.104Z,77.28
2023-01-19T01:26:35.545Z,77.28
2023-01-19T01:26:45.482Z,77.28
2023-01-19T01:26:55.459Z,77.38
2023-01-19T01:27:05.457Z,77.38
2023-01-19T01:27:15.524Z,77.38
2023-01-19T01:27:25.492Z,77.38
2023-01-19T01:27:35.480Z,77.38
2023-01-19T01:27:45.467Z,77.38
2023-01-19T01:27:55.516Z,77.38
2023-01-19T01:28:05.416Z,77.38
2023-01-19T01:28:15.455Z,77.38
2023-01-19T01:28:25.466Z,77.38
2023-01-19T01:28:35.394Z,77.38
2023-01-19T01:28:45.494Z,77.48
2023-01-19T01:28:55.477Z,77.38
2023-01-19T01:29:05.508Z,77.48
2023-01-19T01:29:15.407Z,77.38
2023-01-19T01:29:25.398Z,77.38
2023-01-19T01:29:35.399Z,77.48
2023-01-19T01:29:45.525Z,77.48
2023-01-19T01:29:55.466Z,77.48
2023-01-19T01:30:05.440Z,77.48
2023-01-19T01:30:15.450Z,77.38
2023-01-19T01:30:25.467Z,77.38
2023-01-19T01:30:35.457Z,77.38
2023-01-19T01:30:45.487Z,77.48
2023-01-19T01:30:55.491Z,77.48
2023-01-19T01:31:05.478Z,77.48
2023-01-19T01:31:15.549Z,77.48
2023-01-19T01:31:25.513Z,77.59
2023-01-19T01:31:35.463Z,77.59
2023-01-19T01:31:45.445Z,77.59
2023-01-19T01:31:55.488Z,77.59
2023-01-19T01:32:05.451Z,77.59
2023-01-19T01:32:15.433Z,77.70
2023-01-19T01:32:25.491Z,77.70
2023-01-19T01:32:35.431Z,77.80
2023-01-19T01:32:45.480Z,77.80
2023-01-19T01:32:55.481Z,77.80
2023-01-19T01:33:05.510Z,77.80
2023-01-19T01:33:15.413Z,77.91
2023-01-19T01:33:39.961Z,77.91
2023-01-19T01:33:41.142Z,77.91
2023-01-19T01:33:45.531Z,77.91
2023-01-19T01:33:55.514Z,77.91
2023-01-19T01:34:05.458Z,77.91
2023-01-19T01:34:15.422Z,77.91
2023-01-19T01:34:25.509Z,77.91
2023-01-19T01:34:35.460Z,77.91
2023-01-19T01:34:45.468Z,77.80
2023-01-19T01:34:55.438Z,77.80
2023-01-19T01:35:05.488Z,77.84
2023-01-19T01:35:15.450Z,77.84
2023-01-19T01:35:25.397Z,77.84
2023-01-19T01:35:35.444Z,77.84
2023-01-19T01:35:45.492Z,77.94
2023-01-19T01:35:55.487Z,77.94
2023-01-19T01:36:05.516Z,77.94
2023-01-19T01:36:15.394Z,78.05
2023-01-19T01:36:25.506Z,78.05
2023-01-19T01:36:35.504Z,78.05
2023-01-19T01:36:45.502Z,78.05
2023-01-19T01:36:55.432Z,78.05
2023-01-19T01:37:05.520Z,78.15
2023-01-19T01:37:15.473Z,78.15
2023-01-19T01:37:25.533Z,78.15
2023-01-19T01:37:35.439Z,78.25
2023-01-19T01:37:45.475Z,78.25
2023-01-19T01:37:55.416Z,78.25
2023-01-19T01:38:05.523Z,78.25
2023-01-19T01:38:15.526Z,78.25
2023-01-19T01:38:25.472Z,78.25
2023-01-19T01:38:35.470Z,78.25
2023-01-19T01:38:45.504Z,78.25
2023-01-19T01:38:55.441Z,78.25
2023-01-19T01:39:05.448Z,78.36
2023-01-19T01:39:15.547Z,78.36
2023-01-19T01:39:25.408Z,78.47
2023-01-19T01:39:35.523Z,78.47
2023-01-19T01:39:45.502Z,78.47
2023-01-19T01:39:55.439Z,78.57
2023-01-19T01:40:05.416Z,78.67
2023-01-19T01:40:15.408Z,78.78
2023-01-19T01:40:25.525Z,78.78
2023-01-19T01:40:35.471Z,78.78
2023-01-19T01:40:45.518Z,78.89
2023-01-19T01:40:55.501Z,78.89
2023-01-19T01:41:05.411Z,78.89
2023-01-19T01:41:15.538Z,78.89
2023-01-19T01:41:25.577Z,78.99
2023-01-19T01:41:35.425Z,78.99
2023-01-19T01:41:45.522Z,78.99
2023-01-19T01:41:56.016Z,79.10
2023-01-19T01:42:05.436Z,79.10
2023-01-19T01:42:15.461Z,79.10
2023-01-19T01:42:25.448Z,79.10
2023-01-19T01:42:35.412Z,78.99
2023-01-19T01:42:45.515Z,78.99
2023-01-19T01:42:55.461Z,78.99
2023-01-19T01:43:05.467Z,78.99
2023-01-19T01:43:15.402Z,78.99
2023-01-19T01:43:25.479Z,78.99
2023-01-19T01:43:35.509Z,78.89
2023-01-19T01:43:45.475Z,78.89
2023-01-19T01:43:55.509Z,78.89
2023-01-19T01:44:05.444Z,78.89
2023-01-19T01:44:15.454Z,78.89
2023-01-19T01:44:25.507Z,78.78
2023-01-19T01:44:35.451Z,78.78
2023-01-19T01:44:45.495Z,78.78
2023-01-19T01:44:55.392Z,78.78
2023-01-19T01:45:05.409Z,78.78
2023-01-19T01:45:15.459Z,78.78
2023-01-19T01:45:25.472Z,78.78
2023-01-19T01:45:35.549Z,78.78
2023-01-19T01:45:45.595Z,78.78
2023-01-19T01:45:55.539Z,78.78
2023-01-19T01:46:05.463Z,78.78
2023-01-19T01:46:15.853Z,78.78
2023-01-19T01:46:25.496Z,78.89
2023-01-19T01:46:35.542Z,78.89
2023-01-19T01:46:45.456Z,78.89
2023-01-19T01:46:55.532Z,78.89
2023-01-19T01:47:05.430Z,78.89
2023-01-19T01:47:15.520Z,78.89
2023-01-19T01:47:25.430Z,78.89
2023-01-19T01:47:35.468Z,78.89
2023-01-19T01:47:45.435Z,78.89
2023-01-19T01:47:55.401Z,78.89
2023-01-19T01:48:05.456Z,78.78
2023-01-19T01:48:15.464Z,78.78
2023-01-19T01:48:25.489Z,78.78
2023-01-19T01:48:35.504Z,78.78
2023-01-19T01:48:45.473Z,78.78
2023-01-19T01:48:55.447Z,78.78
2023-01-19T01:49:05.481Z,78.78
2023-01-19T01:49:15.529Z,78.78
2023-01-19T01:49:25.452Z,78.78
2023-01-19T01:49:35.446Z,78.78
2023-01-19T01:49:45.515Z,78.78
2023-01-19T01:49:55.490Z,78.78
2023-01-19T01:50:05.481Z,78.78
2023-01-19T01:50:15.438Z,78.89
2023-01-19T01:50:25.464Z,78.99
2023-01-19T01:50:35.511Z,79.10
2023-01-19T01:50:45.469Z,79.20
2023-01-19T01:50:55.445Z,79.20
2023-01-19T01:51:05.442Z,79.20
2023-01-19T01:51:15.467Z,79.20
2023-01-19T01:51:25.496Z,79.20
2023-01-19T01:51:35.494Z,79.30
2023-01-19T01:51:45.450Z,79.30
2023-01-19T01:51:55.428Z,79.30
2023-01-19T01:52:05.508Z,79.30
2023-01-19T01:52:15.451Z,79.20
2023-01-19T01:52:25.495Z,79.20
2023-01-19T01:52:35.449Z,79.20
2023-01-19T01:53:06.412Z,79.20
2023-01-19T01:53:07.399Z,79.30
2023-01-19T01:53:07.426Z,79.20
2023-01-19T01:53:15.455Z,79.30
2023-01-19T01:53:25.455Z,79.30
2023-01-19T01:53:35.443Z,79.30
2023-01-19T01:53:45.512Z,79.30
2023-01-19T01:53:55.438Z,79.30
2023-01-19T01:54:05.392Z,79.30
2023-01-19T01:54:15.474Z,79.30
2023-01-19T01:54:25.517Z,79.20
2023-01-19T01:54:35.434Z,79.20
2023-01-19T01:54:45.491Z,79.10
2023-01-19T01:54:55.404Z,78.99
2023-01-19T01:55:05.497Z,78.85
2023-01-19T01:55:15.522Z,78.85
2023-01-19T01:55:25.496Z,78.74
2023-01-19T01:55:35.432Z,78.74
2023-01-19T01:55:45.453Z,78.64
2023-01-19T01:55:55.465Z,78.64
2023-01-19T01:56:05.492Z,78.64
2023-01-19T01:56:15.518Z,78.64
2023-01-19T01:56:25.421Z,78.64
2023-01-19T01:56:35.412Z,78.64
2023-01-19T01:56:45.512Z,78.64
2023-01-19T01:56:55.478Z,78.53
2023-01-19T01:57:05.404Z,78.43
2023-01-19T01:57:15.483Z,78.33
2023-01-19T01:57:25.442Z,78.22
2023-01-19T01:57:35.475Z,78.22
2023-01-19T01:57:45.523Z,78.11
2023-01-19T01:57:55.480Z,78.11
2023-01-19T01:58:05.412Z,77.97
2023-01-19T01:58:15.522Z,77.97
2023-01-19T01:58:25.461Z,77.87
2023-01-19T01:58:35.448Z,77.87
2023-01-19T01:58:45.427Z,77.76
2023-01-19T01:58:55.441Z,77.66
2023-01-19T01:59:05.440Z,77.66
2023-01-19T01:59:15.474Z,77.56
2023-01-19T01:59:25.451Z,77.45
2023-01-19T01:59:35.535Z,77.45
2023-01-19T01:59:45.413Z,77.34
2023-01-19T01:59:55.476Z,77.34
2023-01-19T02:00:05.477Z,77.24
2023-01-19T02:00:15.518Z,77.24
2023-01-19T02:00:25.497Z,77.14
2023-01-19T02:00:35.432Z,77.00
2023-01-19T02:00:45.604Z,77.00
2023-01-19T02:00:55.589Z,76.89
2023-01-19T02:01:05.667Z,76.89
2023-01-19T02:01:15.477Z,76.79
2023-01-19T02:01:25.493Z,76.68
2023-01-19T02:01:35.700Z,76.68
2023-01-19T02:01:45.626Z,76.68
2023-01-19T02:01:55.679Z,76.57
2023-01-19T02:02:05.589Z,76.57
2023-01-19T02:02:15.590Z,76.47
2023-01-19T02:02:25.418Z,76.47
2023-01-19T02:02:35.392Z,76.37
2023-01-19T02:02:45.562Z,76.37
2023-01-19T02:02:55.547Z,76.26
2023-01-19T02:03:05.482Z,76.26
2023-01-19T02:03:15.483Z,76.26
2023-01-19T02:03:25.550Z,76.26
2023-01-19T02:03:35.442Z,76.16
2023-01-19T02:03:45.430Z,76.16
2023-01-19T02:03:55.473Z,76.16
2023-01-19T02:04:05.510Z,76.06
2023-01-19T02:04:15.450Z,76.06
2023-01-19T02:04:25.415Z,75.95
2023-01-19T02:04:35.416Z,75.95
2023-01-19T02:04:45.452Z,75.95
2023-01-19T02:04:55.458Z,75.95
2023-01-19T02:05:05.397Z,75.95
2023-01-19T02:05:15.408Z,75.95
2023-01-19T02:05:25.499Z,75.81
2023-01-19T02:05:35.571Z,75.84
2023-01-19T02:05:45.505Z,75.81
2023-01-19T02:05:55.450Z,75.81
2023-01-19T02:06:05.522Z,75.81
2023-01-19T02:06:15.395Z,75.81
2023-01-19T02:06:25.415Z,75.81
2023-01-19T02:06:35.394Z,75.81
2023-01-19T02:06:45.424Z,75.70
2023-01-19T02:06:55.431Z,75.81
2023-01-19T02:07:05.474Z,75.81
2023-01-19T02:07:15.512Z,75.70
2023-01-19T02:07:25.407Z,75.70
2023-01-19T02:07:35.470Z,75.70
2023-01-19T02:07:45.513Z,75.70
2023-01-19T02:07:55.598Z,75.60
2023-01-19T02:08:05.415Z,75.60
2023-01-19T02:08:15.464Z,75.60
2023-01-19T02:08:25.474Z,75.49
2023-01-19T02:08:35.430Z,75.60
2023-01-19T02:08:45.489Z,75.60